sensor_id;sensor_type;location;lat;lon;timestamp;temperature;humidity
43049;DHT22;28673;44.412;11.918;2023-02-28T00:01:19;5.20;99.90
43049;DHT22;28673;44.412;11.918;2023-02-28T00:03:45;5.20;99.90
43049;DHT22;28673;44.412;11.918;2023-02-28T00:06:11;5.10;99.90
43049;DHT22;28673;44.412;11.918;2023-02-28T00:08:37;5.00;99.90
43049;DHT22;28673;44.412;11.918;2023-02-28T00:11:09;5.00;99.90
43049;DHT22;28673;44.412;11.918;2023-02-28T00:13:37;5.00;99.90
43049;DHT22;28673;44.412;11.918;2023-02-28T00:16:08;5.00;99.90
43049;DHT22;28673;44.412;11.918;2023-02-28T00:18:35;5.00;99.90
43049;DHT22;28673;44.412;11.918;2023-02-28T00:21:01;5.00;99.90
43049;DHT22;28673;44.412;11.918;2023-02-28T00:23:27;4.90;99.90
43049;DHT22;28673;44.412;11.918;2023-02-28T00:25:53;4.90;99.90
43049;DHT22;28673;44.412;11.918;2023-02-28T00:28:19;4.90;99.90
43049;DHT22;28673;44.412;11.918;2023-02-28T00:30:45;4.90;99.90
43049;DHT22;28673;44.412;11.918;2023-02-28T00:33:11;4.90;99.90
43049;DHT22;28673;44.412;11.918;2023-02-28T00:35:38;4.90;99.90
43049;DHT22;28673;44.412;11.918;2023-02-28T00:38:04;4.90;99.90
43049;DHT22;28673;44.412;11.918;2023-02-28T00:40:30;4.90;99.90
43049;DHT22;28673;44.412;11.918;2023-02-28T00:42:55;4.90;99.90
43049;DHT22;28673;44.412;11.918;2023-02-28T00:45:21;4.90;99.90
43049;DHT22;28673;44.412;11.918;2023-02-28T00:47:47;4.90;99.90
43049;DHT22;28673;44.412;11.918;2023-02-28T00:50:20;5.00;99.90
43049;DHT22;28673;44.412;11.918;2023-02-28T00:52:47;5.00;99.90
43049;DHT22;28673;44.412;11.918;2023-02-28T00:55:14;5.00;99.90
43049;DHT22;28673;44.412;11.918;2023-02-28T00:57:40;5.00;99.90
43049;DHT22;28673;44.412;11.918;2023-02-28T01:00:07;5.00;99.90
43049;DHT22;28673;44.412;11.918;2023-02-28T01:02:33;5.00;99.90
43049;DHT22;28673;44.412;11.918;2023-02-28T01:04:59;5.00;99.90
43049;DHT22;28673;44.412;11.918;2023-02-28T01:07:24;5.00;99.90
43049;DHT22;28673;44.412;11.918;2023-02-28T01:09:50;5.00;99.90
43049;DHT22;28673;44.412;11.918;2023-02-28T01:12:16;4.90;99.90
43049;DHT22;28673;44.412;11.918;2023-02-28T01:14:42;4.80;99.90
43049;DHT22;28673;44.412;11.918;2023-02-28T01:17:08;4.80;99.90
43049;DHT22;28673;44.412;11.918;2023-02-28T01:19:34;4.80;99.90
43049;DHT22;28673;44.412;11.918;2023-02-28T01:22:03;4.80;99.90
43049;DHT22;28673;44.412;11.918;2023-02-28T01:24:29;4.80;99.90
43049;DHT22;28673;44.412;11.918;2023-02-28T01:26:55;4.70;99.90
43049;DHT22;28673;44.412;11.918;2023-02-28T01:29:21;4.70;99.90
43049;DHT22;28673;44.412;11.918;2023-02-28T01:31:47;4.70;99.90
43049;DHT22;28673;44.412;11.918;2023-02-28T01:34:13;4.70;99.90
43049;DHT22;28673;44.412;11.918;2023-02-28T01:36:38;4.70;99.90
43049;DHT22;28673;44.412;11.918;2023-02-28T01:39:04;4.70;99.90
43049;DHT22;28673;44.412;11.918;2023-02-28T01:41:32;4.70;99.90
43049;DHT22;28673;44.412;11.918;2023-02-28T01:47:04;4.70;99.90
43049;DHT22;28673;44.412;11.918;2023-02-28T01:49:30;4.70;99.90
43049;DHT22;28673;44.412;11.918;2023-02-28T01:51:56;4.70;99.90
43049;DHT22;28673;44.412;11.918;2023-02-28T01:54:28;4.70;99.90
43049;DHT22;28673;44.412;11.918;2023-02-28T01:57:07;4.70;99.90
43049;DHT22;28673;44.412;11.918;2023-02-28T02:02:17;4.80;99.90
43049;DHT22;28673;44.412;11.918;2023-02-28T02:04:51;4.80;99.90
43049;DHT22;28673;44.412;11.918;2023-02-28T02:07:19;4.80;99.90
43049;DHT22;28673;44.412;11.918;2023-02-28T02:09:45;4.80;99.90
43049;DHT22;28673;44.412;11.918;2023-02-28T02:12:27;4.80;99.90
43049;DHT22;28673;44.412;11.918;2023-02-28T02:15:07;4.80;99.90
43049;DHT22;28673;44.412;11.918;2023-02-28T02:17:41;4.80;99.90
43049;DHT22;28673;44.412;11.918;2023-02-28T02:26:17;4.80;99.90
43049;DHT22;28673;44.412;11.918;2023-02-28T02:31:49;4.80;99.90
43049;DHT22;28673;44.412;11.918;2023-02-28T02:38:38;4.80;99.90
43049;DHT22;28673;44.412;11.918;2023-02-28T02:46:44;4.80;99.90
43049;DHT22;28673;44.412;11.918;2023-02-28T02:49:24;4.70;99.90
43049;DHT22;28673;44.412;11.918;2023-02-28T02:51:53;4.70;99.90
43049;DHT22;28673;44.412;11.918;2023-02-28T02:54:34;4.70;99.90
43049;DHT22;28673;44.412;11.918;2023-02-28T02:57:05;4.70;99.90
43049;DHT22;28673;44.412;11.918;2023-02-28T02:59:32;4.70;99.90
43049;DHT22;28673;44.412;11.918;2023-02-28T03:02:06;4.70;99.90
43049;DHT22;28673;44.412;11.918;2023-02-28T03:04:46;4.70;99.90
43049;DHT22;28673;44.412;11.918;2023-02-28T03:07:14;4.70;99.90
43049;DHT22;28673;44.412;11.918;2023-02-28T03:09:40;4.60;99.90
43049;DHT22;28673;44.412;11.918;2023-02-28T03:12:11;4.70;99.90
43049;DHT22;28673;44.412;11.918;2023-02-28T03:18:10;4.70;99.90
43049;DHT22;28673;44.412;11.918;2023-02-28T03:21:04;4.70;99.90
43049;DHT22;28673;44.412;11.918;2023-02-28T03:26:26;4.70;99.90
43049;DHT22;28673;44.412;11.918;2023-02-28T03:29:23;4.70;99.90
43049;DHT22;28673;44.412;11.918;2023-02-28T03:32:50;4.70;99.90
43049;DHT22;28673;44.412;11.918;2023-02-28T03:35:10;4.70;99.90
43049;DHT22;28673;44.412;11.918;2023-02-28T03:37:41;4.70;99.90
43049;DHT22;28673;44.412;11.918;2023-02-28T03:40:11;4.70;99.90
43049;DHT22;28673;44.412;11.918;2023-02-28T03:42:41;4.70;99.90
43049;DHT22;28673;44.412;11.918;2023-02-28T03:45:15;4.70;99.90
43049;DHT22;28673;44.412;11.918;2023-02-28T03:50:23;4.70;99.90
43049;DHT22;28673;44.412;11.918;2023-02-28T03:53:01;4.70;99.90
43049;DHT22;28673;44.412;11.918;2023-02-28T03:55:34;4.80;99.90
43049;DHT22;28673;44.412;11.918;2023-02-28T03:58:55;4.70;99.90
43049;DHT22;28673;44.412;11.918;2023-02-28T04:01:02;4.70;99.90
43049;DHT22;28673;44.412;11.918;2023-02-28T04:03:35;4.80;99.90
43049;DHT22;28673;44.412;11.918;2023-02-28T04:06:01;4.70;99.90
43049;DHT22;28673;44.412;11.918;2023-02-28T04:08:27;4.80;99.90
43049;DHT22;28673;44.412;11.918;2023-02-28T04:11:04;4.80;99.90
43049;DHT22;28673;44.412;11.918;2023-02-28T04:13:31;4.70;99.90
43049;DHT22;28673;44.412;11.918;2023-02-28T04:15:57;4.80;99.90
43049;DHT22;28673;44.412;11.918;2023-02-28T04:18:23;4.80;99.90
43049;DHT22;28673;44.412;11.918;2023-02-28T04:20:49;4.80;99.90
43049;DHT22;28673;44.412;11.918;2023-02-28T04:23:14;4.80;99.90
43049;DHT22;28673;44.412;11.918;2023-02-28T04:25:40;4.80;99.90
43049;DHT22;28673;44.412;11.918;2023-02-28T04:28:06;4.80;99.90
43049;DHT22;28673;44.412;11.918;2023-02-28T04:30:32;4.80;99.90
43049;DHT22;28673;44.412;11.918;2023-02-28T04:32:59;4.80;99.90
43049;DHT22;28673;44.412;11.918;2023-02-28T04:35:25;4.80;99.90
43049;DHT22;28673;44.412;11.918;2023-02-28T04:37:51;4.80;99.90
43049;DHT22;28673;44.412;11.918;2023-02-28T04:40:16;4.70;99.90
43049;DHT22;28673;44.412;11.918;2023-02-28T04:42:42;4.70;99.90
43049;DHT22;28673;44.412;11.918;2023-02-28T04:45:08;4.70;99.90
43049;DHT22;28673;44.412;11.918;2023-02-28T04:47:36;4.70;99.90
43049;DHT22;28673;44.412;11.918;2023-02-28T04:50:02;4.70;99.90
43049;DHT22;28673;44.412;11.918;2023-02-28T04:52:29;4.70;99.90
43049;DHT22;28673;44.412;11.918;2023-02-28T04:54:55;4.70;99.90
43049;DHT22;28673;44.412;11.918;2023-02-28T04:57:21;4.70;99.90
43049;DHT22;28673;44.412;11.918;2023-02-28T04:59:46;4.70;99.90
43049;DHT22;28673;44.412;11.918;2023-02-28T05:02:12;4.70;99.90
43049;DHT22;28673;44.412;11.918;2023-02-28T05:04:38;4.70;99.90
43049;DHT22;28673;44.412;11.918;2023-02-28T05:07:04;4.70;99.90
43049;DHT22;28673;44.412;11.918;2023-02-28T05:09:30;4.70;99.90
43049;DHT22;28673;44.412;11.918;2023-02-28T05:11:55;4.70;99.90
43049;DHT22;28673;44.412;11.918;2023-02-28T05:14:21;4.80;99.90
43049;DHT22;28673;44.412;11.918;2023-02-28T05:16:47;4.80;99.90
43049;DHT22;28673;44.412;11.918;2023-02-28T05:19:13;4.80;99.90
43049;DHT22;28673;44.412;11.918;2023-02-28T05:21:51;4.80;99.90
43049;DHT22;28673;44.412;11.918;2023-02-28T05:24:17;4.80;99.90
43049;DHT22;28673;44.412;11.918;2023-02-28T05:26:49;4.80;99.90
43049;DHT22;28673;44.412;11.918;2023-02-28T05:29:16;4.70;99.90
43049;DHT22;28673;44.412;11.918;2023-02-28T05:31:42;4.80;99.90
43049;DHT22;28673;44.412;11.918;2023-02-28T05:34:08;4.80;99.90
43049;DHT22;28673;44.412;11.918;2023-02-28T05:36:37;4.80;99.90
43049;DHT22;28673;44.412;11.918;2023-02-28T05:39:04;4.80;99.90
43049;DHT22;28673;44.412;11.918;2023-02-28T05:41:30;4.80;99.90
43049;DHT22;28673;44.412;11.918;2023-02-28T05:43:57;4.80;99.90
43049;DHT22;28673;44.412;11.918;2023-02-28T05:46:23;4.90;99.90
43049;DHT22;28673;44.412;11.918;2023-02-28T05:48:49;4.90;99.90
43049;DHT22;28673;44.412;11.918;2023-02-28T05:51:17;4.90;99.90
43049;DHT22;28673;44.412;11.918;2023-02-28T05:53:44;4.90;99.90
43049;DHT22;28673;44.412;11.918;2023-02-28T05:56:10;4.90;99.90
43049;DHT22;28673;44.412;11.918;2023-02-28T05:58:35;4.90;99.90
43049;DHT22;28673;44.412;11.918;2023-02-28T06:01:35;4.90;99.90
43049;DHT22;28673;44.412;11.918;2023-02-28T06:04:02;5.00;99.90
43049;DHT22;28673;44.412;11.918;2023-02-28T06:06:29;5.00;99.90
43049;DHT22;28673;44.412;11.918;2023-02-28T06:08:55;5.00;99.90
43049;DHT22;28673;44.412;11.918;2023-02-28T06:11:22;5.00;99.90
43049;DHT22;28673;44.412;11.918;2023-02-28T06:13:56;5.00;99.90
43049;DHT22;28673;44.412;11.918;2023-02-28T06:16:23;5.00;99.90
43049;DHT22;28673;44.412;11.918;2023-02-28T06:18:49;5.00;99.90
43049;DHT22;28673;44.412;11.918;2023-02-28T06:21:15;5.00;99.90
43049;DHT22;28673;44.412;11.918;2023-02-28T06:23:41;5.00;99.90
43049;DHT22;28673;44.412;11.918;2023-02-28T06:26:07;5.00;99.90
43049;DHT22;28673;44.412;11.918;2023-02-28T06:28:33;5.00;99.90
43049;DHT22;28673;44.412;11.918;2023-02-28T06:30:59;5.10;99.90
43049;DHT22;28673;44.412;11.918;2023-02-28T06:33:25;5.10;99.90
43049;DHT22;28673;44.412;11.918;2023-02-28T06:35:51;5.10;99.90
43049;DHT22;28673;44.412;11.918;2023-02-28T06:38:17;5.10;99.90
43049;DHT22;28673;44.412;11.918;2023-02-28T06:40:44;5.20;99.90
43049;DHT22;28673;44.412;11.918;2023-02-28T06:43:10;5.10;99.90
43049;DHT22;28673;44.412;11.918;2023-02-28T06:45:42;5.10;99.90
43049;DHT22;28673;44.412;11.918;2023-02-28T06:48:09;5.20;99.90
43049;DHT22;28673;44.412;11.918;2023-02-28T06:50:36;5.20;99.90
43049;DHT22;28673;44.412;11.918;2023-02-28T06:53:01;5.20;99.90
43049;DHT22;28673;44.412;11.918;2023-02-28T06:55:27;5.30;99.90
43049;DHT22;28673;44.412;11.918;2023-02-28T06:57:53;5.30;99.90
43049;DHT22;28673;44.412;11.918;2023-02-28T07:00:20;5.20;99.90
43049;DHT22;28673;44.412;11.918;2023-02-28T07:02:46;5.20;99.90
43049;DHT22;28673;44.412;11.918;2023-02-28T07:05:12;5.20;99.90
43049;DHT22;28673;44.412;11.918;2023-02-28T07:07:39;5.20;99.90
43049;DHT22;28673;44.412;11.918;2023-02-28T07:10:10;5.20;99.90
43049;DHT22;28673;44.412;11.918;2023-02-28T07:12:37;5.20;99.90
43049;DHT22;28673;44.412;11.918;2023-02-28T07:15:04;5.20;99.90
43049;DHT22;28673;44.412;11.918;2023-02-28T07:17:30;5.30;99.90
43049;DHT22;28673;44.412;11.918;2023-02-28T07:19:56;5.30;99.90
43049;DHT22;28673;44.412;11.918;2023-02-28T07:22:22;5.30;99.90
43049;DHT22;28673;44.412;11.918;2023-02-28T07:24:48;5.30;99.90
43049;DHT22;28673;44.412;11.918;2023-02-28T07:27:14;5.30;99.90
43049;DHT22;28673;44.412;11.918;2023-02-28T07:29:49;5.30;99.90
43049;DHT22;28673;44.412;11.918;2023-02-28T07:32:15;5.30;99.90
43049;DHT22;28673;44.412;11.918;2023-02-28T07:34:42;5.30;99.90
43049;DHT22;28673;44.412;11.918;2023-02-28T07:37:08;5.30;99.90
43049;DHT22;28673;44.412;11.918;2023-02-28T07:39:36;5.40;99.90
43049;DHT22;28673;44.412;11.918;2023-02-28T07:42:06;5.30;99.90
43049;DHT22;28673;44.412;11.918;2023-02-28T07:44:36;5.30;99.90
43049;DHT22;28673;44.412;11.918;2023-02-28T07:47:09;5.40;99.90
43049;DHT22;28673;44.412;11.918;2023-02-28T07:49:38;5.40;99.90
43049;DHT22;28673;44.412;11.918;2023-02-28T07:52:06;5.40;99.90
43049;DHT22;28673;44.412;11.918;2023-02-28T07:54:32;5.50;99.90
43049;DHT22;28673;44.412;11.918;2023-02-28T07:56:58;5.50;99.90
43049;DHT22;28673;44.412;11.918;2023-02-28T07:59:24;5.50;99.90
43049;DHT22;28673;44.412;11.918;2023-02-28T08:01:50;5.50;99.90
43049;DHT22;28673;44.412;11.918;2023-02-28T08:04:17;5.60;99.90
43049;DHT22;28673;44.412;11.918;2023-02-28T08:06:43;5.60;99.90
43049;DHT22;28673;44.412;11.918;2023-02-28T08:09:09;5.60;99.90
43049;DHT22;28673;44.412;11.918;2023-02-28T08:11:35;5.60;99.90
43049;DHT22;28673;44.412;11.918;2023-02-28T08:14:02;5.70;99.90
43049;DHT22;28673;44.412;11.918;2023-02-28T08:16:28;5.60;99.90
43049;DHT22;28673;44.412;11.918;2023-02-28T08:18:54;5.70;99.90
43049;DHT22;28673;44.412;11.918;2023-02-28T08:21:20;5.70;99.90
43049;DHT22;28673;44.412;11.918;2023-02-28T08:23:50;5.70;99.90
43049;DHT22;28673;44.412;11.918;2023-02-28T08:26:17;5.70;99.90
43049;DHT22;28673;44.412;11.918;2023-02-28T08:28:43;5.70;99.90
43049;DHT22;28673;44.412;11.918;2023-02-28T08:31:11;5.70;99.90
43049;DHT22;28673;44.412;11.918;2023-02-28T08:33:38;5.80;99.90
43049;DHT22;28673;44.412;11.918;2023-02-28T08:36:05;5.80;99.90
43049;DHT22;28673;44.412;11.918;2023-02-28T08:38:31;5.80;99.90
43049;DHT22;28673;44.412;11.918;2023-02-28T08:41:02;5.80;99.90
43049;DHT22;28673;44.412;11.918;2023-02-28T08:43:28;5.90;99.90
43049;DHT22;28673;44.412;11.918;2023-02-28T08:45:57;5.90;99.90
43049;DHT22;28673;44.412;11.918;2023-02-28T08:48:25;6.00;99.90
43049;DHT22;28673;44.412;11.918;2023-02-28T08:50:58;6.00;99.90
43049;DHT22;28673;44.412;11.918;2023-02-28T08:53:25;6.00;99.90
43049;DHT22;28673;44.412;11.918;2023-02-28T08:56:04;6.10;99.90
43049;DHT22;28673;44.412;11.918;2023-02-28T08:58:32;6.20;99.90
43049;DHT22;28673;44.412;11.918;2023-02-28T09:01:10;6.30;99.90
43049;DHT22;28673;44.412;11.918;2023-02-28T09:03:37;6.30;99.90
43049;DHT22;28673;44.412;11.918;2023-02-28T09:06:04;6.40;99.90
43049;DHT22;28673;44.412;11.918;2023-02-28T09:08:31;6.50;99.90
43049;DHT22;28673;44.412;11.918;2023-02-28T09:10:58;6.50;99.90
43049;DHT22;28673;44.412;11.918;2023-02-28T09:13:28;6.60;99.90
43049;DHT22;28673;44.412;11.918;2023-02-28T09:15:56;6.70;99.90
43049;DHT22;28673;44.412;11.918;2023-02-28T09:18:23;6.80;99.90
43049;DHT22;28673;44.412;11.918;2023-02-28T09:20:49;6.90;99.90
43049;DHT22;28673;44.412;11.918;2023-02-28T09:23:26;7.00;99.90
43049;DHT22;28673;44.412;11.918;2023-02-28T09:25:57;7.20;99.90
43049;DHT22;28673;44.412;11.918;2023-02-28T09:28:25;7.30;99.90
43049;DHT22;28673;44.412;11.918;2023-02-28T09:30:53;7.50;99.90
43049;DHT22;28673;44.412;11.918;2023-02-28T09:33:22;7.70;99.90
43049;DHT22;28673;44.412;11.918;2023-02-28T09:35:48;7.90;99.90
43049;DHT22;28673;44.412;11.918;2023-02-28T09:38:15;8.10;99.90
43049;DHT22;28673;44.412;11.918;2023-02-28T09:40:53;8.20;99.90
43049;DHT22;28673;44.412;11.918;2023-02-28T09:43:22;8.40;99.90
43049;DHT22;28673;44.412;11.918;2023-02-28T09:48:45;8.70;99.90
43049;DHT22;28673;44.412;11.918;2023-02-28T09:53:49;9.00;99.90
43049;DHT22;28673;44.412;11.918;2023-02-28T09:56:21;9.10;99.90
43049;DHT22;28673;44.412;11.918;2023-02-28T09:58:58;9.10;99.90
43049;DHT22;28673;44.412;11.918;2023-02-28T10:04:14;9.30;99.90
43049;DHT22;28673;44.412;11.918;2023-02-28T10:06:51;9.40;99.90
43049;DHT22;28673;44.412;11.918;2023-02-28T10:09:40;9.50;99.90
43049;DHT22;28673;44.412;11.918;2023-02-28T10:12:07;9.60;99.90
43049;DHT22;28673;44.412;11.918;2023-02-28T10:14:38;9.60;99.90
43049;DHT22;28673;44.412;11.918;2023-02-28T10:17:15;9.70;99.90
43049;DHT22;28673;44.412;11.918;2023-02-28T10:22:38;9.60;99.90
43049;DHT22;28673;44.412;11.918;2023-02-28T10:25:19;9.70;99.90
43049;DHT22;28673;44.412;11.918;2023-02-28T10:27:45;9.70;99.90
43049;DHT22;28673;44.412;11.918;2023-02-28T10:30:12;9.60;99.90
43049;DHT22;28673;44.412;11.918;2023-02-28T10:32:40;9.70;99.90
43049;DHT22;28673;44.412;11.918;2023-02-28T10:35:18;9.70;99.90
43049;DHT22;28673;44.412;11.918;2023-02-28T10:37:50;9.70;99.90
43049;DHT22;28673;44.412;11.918;2023-02-28T10:42:57;9.80;99.90
43049;DHT22;28673;44.412;11.918;2023-02-28T10:45:24;9.70;99.90
43049;DHT22;28673;44.412;11.918;2023-02-28T10:47:58;9.80;99.90
43049;DHT22;28673;44.412;11.918;2023-02-28T11:01:38;9.70;99.90
43049;DHT22;28673;44.412;11.918;2023-02-28T11:04:36;9.80;99.90
43049;DHT22;28673;44.412;11.918;2023-02-28T11:07:22;9.70;99.90
43049;DHT22;28673;44.412;11.918;2023-02-28T11:09:50;9.80;99.90
43049;DHT22;28673;44.412;11.918;2023-02-28T11:12:28;9.80;99.90
43049;DHT22;28673;44.412;11.918;2023-02-28T11:15:19;9.70;99.90
43049;DHT22;28673;44.412;11.918;2023-02-28T11:20:33;9.70;99.90
43049;DHT22;28673;44.412;11.918;2023-02-28T11:23:03;9.70;99.90
43049;DHT22;28673;44.412;11.918;2023-02-28T11:25:30;9.70;99.90
43049;DHT22;28673;44.412;11.918;2023-02-28T11:28:00;9.70;99.90
43049;DHT22;28673;44.412;11.918;2023-02-28T11:30:41;9.70;99.90
43049;DHT22;28673;44.412;11.918;2023-02-28T11:35:53;9.70;99.90
43049;DHT22;28673;44.412;11.918;2023-02-28T11:38:26;9.80;99.90
43049;DHT22;28673;44.412;11.918;2023-02-28T11:51:34;9.90;99.90
43049;DHT22;28673;44.412;11.918;2023-02-28T11:54:28;9.90;99.90
43049;DHT22;28673;44.412;11.918;2023-02-28T12:02:57;9.90;99.90
43049;DHT22;28673;44.412;11.918;2023-02-28T12:07:55;9.80;99.90
43049;DHT22;28673;44.412;11.918;2023-02-28T12:10:25;9.80;99.90
43049;DHT22;28673;44.412;11.918;2023-02-28T12:26:14;9.70;99.90
43049;DHT22;28673;44.412;11.918;2023-02-28T12:28:46;9.70;99.90
43049;DHT22;28673;44.412;11.918;2023-02-28T12:31:20;9.70;99.90
43049;DHT22;28673;44.412;11.918;2023-02-28T12:34:03;9.70;99.90
43049;DHT22;28673;44.412;11.918;2023-02-28T12:36:30;9.60;99.90
43049;DHT22;28673;44.412;11.918;2023-02-28T12:39:01;9.60;99.90
43049;DHT22;28673;44.412;11.918;2023-02-28T12:41:48;9.60;99.90
43049;DHT22;28673;44.412;11.918;2023-02-28T12:44:44;9.50;99.90
43049;DHT22;28673;44.412;11.918;2023-02-28T12:47:18;9.40;99.90
43049;DHT22;28673;44.412;11.918;2023-02-28T12:49:55;9.30;99.90
43049;DHT22;28673;44.412;11.918;2023-02-28T13:06:49;9.20;99.90
43049;DHT22;28673;44.412;11.918;2023-02-28T13:09:21;9.20;99.90
43049;DHT22;28673;44.412;11.918;2023-02-28T13:11:51;9.20;99.90
43049;DHT22;28673;44.412;11.918;2023-02-28T13:19:43;9.30;99.90
43049;DHT22;28673;44.412;11.918;2023-02-28T13:22:43;9.30;99.90
43049;DHT22;28673;44.412;11.918;2023-02-28T13:27:49;9.30;99.90
43049;DHT22;28673;44.412;11.918;2023-02-28T13:33:29;9.20;99.90
43049;DHT22;28673;44.412;11.918;2023-02-28T13:38:48;9.20;99.90
43049;DHT22;28673;44.412;11.918;2023-02-28T13:46:33;9.20;99.90
43049;DHT22;28673;44.412;11.918;2023-02-28T13:54:45;9.10;99.90
43049;DHT22;28673;44.412;11.918;2023-02-28T14:04:12;9.10;99.90
43049;DHT22;28673;44.412;11.918;2023-02-28T14:11:41;9.10;99.90
43049;DHT22;28673;44.412;11.918;2023-02-28T14:14:09;9.00;99.90
43049;DHT22;28673;44.412;11.918;2023-02-28T14:16:56;8.90;99.90
43049;DHT22;28673;44.412;11.918;2023-02-28T14:19:27;8.80;99.90
43049;DHT22;28673;44.412;11.918;2023-02-28T14:27:53;8.70;99.90
43049;DHT22;28673;44.412;11.918;2023-02-28T14:30:42;8.70;99.90
43049;DHT22;28673;44.412;11.918;2023-02-28T14:39:04;8.60;99.90
43049;DHT22;28673;44.412;11.918;2023-02-28T14:41:34;8.50;99.90
43049;DHT22;28673;44.412;11.918;2023-02-28T14:44:17;8.50;99.90
43049;DHT22;28673;44.412;11.918;2023-02-28T14:46:45;8.50;99.90
43049;DHT22;28673;44.412;11.918;2023-02-28T14:49:27;8.40;99.90
43049;DHT22;28673;44.412;11.918;2023-02-28T14:54:38;8.40;99.90
43049;DHT22;28673;44.412;11.918;2023-02-28T14:57:05;8.40;99.90
43049;DHT22;28673;44.412;11.918;2023-02-28T14:59:33;8.40;99.90
43049;DHT22;28673;44.412;11.918;2023-02-28T15:02:21;8.40;99.90
43049;DHT22;28673;44.412;11.918;2023-02-28T15:05:00;8.40;99.90
43049;DHT22;28673;44.412;11.918;2023-02-28T15:07:26;8.40;99.90
43049;DHT22;28673;44.412;11.918;2023-02-28T15:12:37;8.40;99.90
43049;DHT22;28673;44.412;11.918;2023-02-28T15:15:06;8.40;99.90
43049;DHT22;28673;44.412;11.918;2023-02-28T15:17:34;8.40;99.90
43049;DHT22;28673;44.412;11.918;2023-02-28T15:20:00;8.40;99.90
43049;DHT22;28673;44.412;11.918;2023-02-28T15:22:35;8.30;99.90
43049;DHT22;28673;44.412;11.918;2023-02-28T15:25:05;8.30;99.90
43049;DHT22;28673;44.412;11.918;2023-02-28T15:27:33;8.20;99.90
43049;DHT22;28673;44.412;11.918;2023-02-28T15:30:06;8.10;99.90
43049;DHT22;28673;44.412;11.918;2023-02-28T15:32:35;8.10;99.90
43049;DHT22;28673;44.412;11.918;2023-02-28T15:37:53;8.10;99.90
43049;DHT22;28673;44.412;11.918;2023-02-28T15:40:41;8.10;99.90
43049;DHT22;28673;44.412;11.918;2023-02-28T15:43:14;8.10;99.90
43049;DHT22;28673;44.412;11.918;2023-02-28T15:45:51;8.10;99.90
43049;DHT22;28673;44.412;11.918;2023-02-28T15:48:30;8.10;99.90
43049;DHT22;28673;44.412;11.918;2023-02-28T15:53:47;8.20;99.90
43049;DHT22;28673;44.412;11.918;2023-02-28T15:59:05;8.20;99.90
43049;DHT22;28673;44.412;11.918;2023-02-28T16:01:36;8.20;99.90
43049;DHT22;28673;44.412;11.918;2023-02-28T16:04:14;8.20;99.90
43049;DHT22;28673;44.412;11.918;2023-02-28T16:06:42;8.10;99.90
43049;DHT22;28673;44.412;11.918;2023-02-28T16:09:15;8.10;99.90
43049;DHT22;28673;44.412;11.918;2023-02-28T16:11:47;8.10;99.90
43049;DHT22;28673;44.412;11.918;2023-02-28T16:14:17;8.10;99.90
43049;DHT22;28673;44.412;11.918;2023-02-28T16:16:49;8.00;99.90
43049;DHT22;28673;44.412;11.918;2023-02-28T16:19:16;8.00;99.90
43049;DHT22;28673;44.412;11.918;2023-02-28T16:21:42;8.00;99.90
43049;DHT22;28673;44.412;11.918;2023-02-28T16:24:08;8.00;99.90
43049;DHT22;28673;44.412;11.918;2023-02-28T16:26:34;8.00;99.90
43049;DHT22;28673;44.412;11.918;2023-02-28T16:29:01;8.00;99.90
43049;DHT22;28673;44.412;11.918;2023-02-28T16:31:28;8.00;99.90
43049;DHT22;28673;44.412;11.918;2023-02-28T16:33:54;8.00;99.90
43049;DHT22;28673;44.412;11.918;2023-02-28T16:36:22;8.00;99.90
43049;DHT22;28673;44.412;11.918;2023-02-28T16:38:50;7.90;99.90
43049;DHT22;28673;44.412;11.918;2023-02-28T16:41:19;7.90;99.90
43049;DHT22;28673;44.412;11.918;2023-02-28T16:43:47;7.90;99.90
43049;DHT22;28673;44.412;11.918;2023-02-28T16:46:15;7.80;99.90
43049;DHT22;28673;44.412;11.918;2023-02-28T16:48:43;7.80;99.90
43049;DHT22;28673;44.412;11.918;2023-02-28T16:51:16;7.90;99.90
43049;DHT22;28673;44.412;11.918;2023-02-28T16:54:06;7.80;99.90
43049;DHT22;28673;44.412;11.918;2023-02-28T16:56:34;7.80;99.90
43049;DHT22;28673;44.412;11.918;2023-02-28T16:59:02;7.80;99.90
43049;DHT22;28673;44.412;11.918;2023-02-28T17:01:28;7.80;99.90
43049;DHT22;28673;44.412;11.918;2023-02-28T17:03:54;7.80;99.90
43049;DHT22;28673;44.412;11.918;2023-02-28T17:06:23;7.80;99.90
43049;DHT22;28673;44.412;11.918;2023-02-28T17:08:51;7.80;99.90
43049;DHT22;28673;44.412;11.918;2023-02-28T17:11:17;7.80;99.90
43049;DHT22;28673;44.412;11.918;2023-02-28T17:13:43;7.70;99.90
43049;DHT22;28673;44.412;11.918;2023-02-28T17:16:30;7.70;99.90
43049;DHT22;28673;44.412;11.918;2023-02-28T17:19:03;7.60;99.90
43049;DHT22;28673;44.412;11.918;2023-02-28T17:21:29;7.60;99.90
43049;DHT22;28673;44.412;11.918;2023-02-28T17:23:55;7.60;99.90
43049;DHT22;28673;44.412;11.918;2023-02-28T17:26:22;7.60;99.90
43049;DHT22;28673;44.412;11.918;2023-02-28T17:28:51;7.60;99.90
43049;DHT22;28673;44.412;11.918;2023-02-28T17:31:18;7.50;99.90
43049;DHT22;28673;44.412;11.918;2023-02-28T17:33:44;7.60;99.90
43049;DHT22;28673;44.412;11.918;2023-02-28T17:36:14;7.60;99.90
43049;DHT22;28673;44.412;11.918;2023-02-28T17:38:40;7.60;99.90
43049;DHT22;28673;44.412;11.918;2023-02-28T17:41:10;7.50;99.90
43049;DHT22;28673;44.412;11.918;2023-02-28T17:43:36;7.50;99.90
43049;DHT22;28673;44.412;11.918;2023-02-28T17:46:02;7.50;99.90
43049;DHT22;28673;44.412;11.918;2023-02-28T17:48:31;7.60;99.90
43049;DHT22;28673;44.412;11.918;2023-02-28T17:50:57;7.50;99.90
43049;DHT22;28673;44.412;11.918;2023-02-28T17:53:24;7.50;99.90
43049;DHT22;28673;44.412;11.918;2023-02-28T17:55:50;7.50;99.90
43049;DHT22;28673;44.412;11.918;2023-02-28T17:58:16;7.50;99.90
43049;DHT22;28673;44.412;11.918;2023-02-28T18:00:44;7.40;99.90
43049;DHT22;28673;44.412;11.918;2023-02-28T18:03:11;7.40;99.90
43049;DHT22;28673;44.412;11.918;2023-02-28T18:05:38;7.40;99.90
43049;DHT22;28673;44.412;11.918;2023-02-28T18:08:05;7.40;99.90
43049;DHT22;28673;44.412;11.918;2023-02-28T18:10:31;7.40;99.90
43049;DHT22;28673;44.412;11.918;2023-02-28T18:12:59;7.30;99.90
43049;DHT22;28673;44.412;11.918;2023-02-28T18:15:25;7.40;99.90
43049;DHT22;28673;44.412;11.918;2023-02-28T18:17:52;7.30;99.90
43049;DHT22;28673;44.412;11.918;2023-02-28T18:20:18;7.40;99.90
43049;DHT22;28673;44.412;11.918;2023-02-28T18:22:44;7.30;99.90
43049;DHT22;28673;44.412;11.918;2023-02-28T18:25:11;7.30;99.90
43049;DHT22;28673;44.412;11.918;2023-02-28T18:27:41;7.30;99.90
43049;DHT22;28673;44.412;11.918;2023-02-28T18:30:28;7.30;99.90
43049;DHT22;28673;44.412;11.918;2023-02-28T18:33:00;7.30;99.90
43049;DHT22;28673;44.412;11.918;2023-02-28T18:35:27;7.30;99.90
43049;DHT22;28673;44.412;11.918;2023-02-28T18:38:01;7.20;99.90
43049;DHT22;28673;44.412;11.918;2023-02-28T18:40:27;7.20;99.90